sensor_id;sensor_type;location;lat;lon;timestamp;temperature;humidity
17346;DHT22;8790;53.590;10.002;2023-04-25T00:02:24;9.80;99.90
17346;DHT22;8790;53.590;10.002;2023-04-25T00:04:56;9.70;99.90
17346;DHT22;8790;53.590;10.002;2023-04-25T00:07:30;9.70;99.90
17346;DHT22;8790;53.590;10.002;2023-04-25T00:10:02;9.60;99.90
17346;DHT22;8790;53.590;10.002;2023-04-25T00:12:34;9.60;99.90
17346;DHT22;8790;53.590;10.002;2023-04-25T00:15:07;9.50;99.90
17346;DHT22;8790;53.590;10.002;2023-04-25T00:17:40;9.50;99.90
17346;DHT22;8790;53.590;10.002;2023-04-25T00:20:12;9.50;99.90
17346;DHT22;8790;53.590;10.002;2023-04-25T00:22:45;9.50;99.90
17346;DHT22;8790;53.590;10.002;2023-04-25T00:25:18;9.60;99.90
17346;DHT22;8790;53.590;10.002;2023-04-25T00:27:50;9.60;99.90
17346;DHT22;8790;53.590;10.002;2023-04-25T00:30:22;9.60;99.90
17346;DHT22;8790;53.590;10.002;2023-04-25T00:32:53;9.50;99.90
17346;DHT22;8790;53.590;10.002;2023-04-25T00:35:25;9.40;99.90
17346;DHT22;8790;53.590;10.002;2023-04-25T00:37:59;9.40;99.90
17346;DHT22;8790;53.590;10.002;2023-04-25T00:40:30;9.50;99.90
17346;DHT22;8790;53.590;10.002;2023-04-25T00:43:02;9.40;99.90
17346;DHT22;8790;53.590;10.002;2023-04-25T00:45:38;9.50;99.90
17346;DHT22;8790;53.590;10.002;2023-04-25T00:48:10;9.60;99.90
17346;DHT22;8790;53.590;10.002;2023-04-25T00:50:43;9.60;99.90
17346;DHT22;8790;53.590;10.002;2023-04-25T00:53:21;9.50;99.90
17346;DHT22;8790;53.590;10.002;2023-04-25T00:55:53;9.50;99.90
17346;DHT22;8790;53.590;10.002;2023-04-25T00:58:26;9.40;99.90
17346;DHT22;8790;53.590;10.002;2023-04-25T01:00:58;9.40;99.90
17346;DHT22;8790;53.590;10.002;2023-04-25T01:03:32;9.50;99.90
17346;DHT22;8790;53.590;10.002;2023-04-25T01:06:06;9.40;99.90
17346;DHT22;8790;53.590;10.002;2023-04-25T01:08:39;9.50;99.90
17346;DHT22;8790;53.590;10.002;2023-04-25T01:11:11;9.40;99.90
17346;DHT22;8790;53.590;10.002;2023-04-25T01:13:44;9.40;99.90
17346;DHT22;8790;53.590;10.002;2023-04-25T01:16:15;9.40;99.90
17346;DHT22;8790;53.590;10.002;2023-04-25T01:18:48;9.40;99.90
17346;DHT22;8790;53.590;10.002;2023-04-25T01:21:22;9.40;99.90
17346;DHT22;8790;53.590;10.002;2023-04-25T01:23:56;9.40;99.90
17346;DHT22;8790;53.590;10.002;2023-04-25T01:26:28;9.40;99.90
17346;DHT22;8790;53.590;10.002;2023-04-25T01:29:01;9.30;99.90
17346;DHT22;8790;53.590;10.002;2023-04-25T01:31:33;9.30;99.90
17346;DHT22;8790;53.590;10.002;2023-04-25T01:34:05;9.20;99.90
17346;DHT22;8790;53.590;10.002;2023-04-25T01:36:39;9.30;99.90
17346;DHT22;8790;53.590;10.002;2023-04-25T01:39:11;9.20;99.90
17346;DHT22;8790;53.590;10.002;2023-04-25T01:41:43;9.10;99.90
17346;DHT22;8790;53.590;10.002;2023-04-25T01:44:16;9.10;99.90
17346;DHT22;8790;53.590;10.002;2023-04-25T01:46:48;9.00;99.90
17346;DHT22;8790;53.590;10.002;2023-04-25T01:49:19;9.10;99.90
17346;DHT22;8790;53.590;10.002;2023-04-25T01:51:53;9.00;99.90
17346;DHT22;8790;53.590;10.002;2023-04-25T01:54:26;8.90;99.90
17346;DHT22;8790;53.590;10.002;2023-04-25T01:56:57;9.00;99.90
17346;DHT22;8790;53.590;10.002;2023-04-25T01:59:30;8.90;99.90
17346;DHT22;8790;53.590;10.002;2023-04-25T02:02:31;9.00;99.90
17346;DHT22;8790;53.590;10.002;2023-04-25T02:05:04;9.00;99.90
17346;DHT22;8790;53.590;10.002;2023-04-25T02:07:40;9.00;99.90
17346;DHT22;8790;53.590;10.002;2023-04-25T02:10:12;9.00;99.90
17346;DHT22;8790;53.590;10.002;2023-04-25T02:12:56;9.00;99.90
17346;DHT22;8790;53.590;10.002;2023-04-25T02:16:01;9.00;99.90
17346;DHT22;8790;53.590;10.002;2023-04-25T02:18:34;9.10;99.90
17346;DHT22;8790;53.590;10.002;2023-04-25T02:21:07;9.00;99.90
17346;DHT22;8790;53.590;10.002;2023-04-25T02:23:40;8.90;99.90
17346;DHT22;8790;53.590;10.002;2023-04-25T02:26:12;8.90;99.90
17346;DHT22;8790;53.590;10.002;2023-04-25T02:28:46;8.90;99.90
17346;DHT22;8790;53.590;10.002;2023-04-25T02:31:17;9.00;99.90
17346;DHT22;8790;53.590;10.002;2023-04-25T02:33:49;9.00;99.90
17346;DHT22;8790;53.590;10.002;2023-04-25T02:36:21;9.00;99.90
17346;DHT22;8790;53.590;10.002;2023-04-25T02:38:55;8.90;99.90
17346;DHT22;8790;53.590;10.002;2023-04-25T02:41:27;8.90;99.90
17346;DHT22;8790;53.590;10.002;2023-04-25T02:44:00;9.00;99.90
17346;DHT22;8790;53.590;10.002;2023-04-25T02:46:31;9.00;99.90
17346;DHT22;8790;53.590;10.002;2023-04-25T02:49:04;9.00;99.90
17346;DHT22;8790;53.590;10.002;2023-04-25T02:51:36;9.00;99.90
17346;DHT22;8790;53.590;10.002;2023-04-25T02:54:09;9.00;99.90
17346;DHT22;8790;53.590;10.002;2023-04-25T02:56:45;9.00;99.90
17346;DHT22;8790;53.590;10.002;2023-04-25T02:59:23;9.00;99.90
17346;DHT22;8790;53.590;10.002;2023-04-25T03:01:54;9.00;99.90
17346;DHT22;8790;53.590;10.002;2023-04-25T03:04:29;8.90;99.90
17346;DHT22;8790;53.590;10.002;2023-04-25T03:07:02;8.80;99.90
17346;DHT22;8790;53.590;10.002;2023-04-25T03:09:35;8.70;99.90
17346;DHT22;8790;53.590;10.002;2023-04-25T03:12:07;8.70;99.90
17346;DHT22;8790;53.590;10.002;2023-04-25T03:14:39;8.60;99.90
17346;DHT22;8790;53.590;10.002;2023-04-25T03:17:11;8.60;99.90
17346;DHT22;8790;53.590;10.002;2023-04-25T03:19:43;8.60;99.90
17346;DHT22;8790;53.590;10.002;2023-04-25T03:22:15;8.60;99.90
17346;DHT22;8790;53.590;10.002;2023-04-25T03:24:48;8.60;99.90
17346;DHT22;8790;53.590;10.002;2023-04-25T03:27:20;8.50;99.90
17346;DHT22;8790;53.590;10.002;2023-04-25T03:29:52;8.40;99.90
17346;DHT22;8790;53.590;10.002;2023-04-25T03:32:24;8.40;99.90
17346;DHT22;8790;53.590;10.002;2023-04-25T03:34:56;8.40;99.90
17346;DHT22;8790;53.590;10.002;2023-04-25T03:37:30;8.40;99.90
17346;DHT22;8790;53.590;10.002;2023-04-25T03:40:04;8.40;99.90
17346;DHT22;8790;53.590;10.002;2023-04-25T03:42:56;8.30;99.90
17346;DHT22;8790;53.590;10.002;2023-04-25T03:45:28;8.30;99.90
17346;DHT22;8790;53.590;10.002;2023-04-25T03:48:00;8.30;99.90
17346;DHT22;8790;53.590;10.002;2023-04-25T03:50:33;8.30;99.90
17346;DHT22;8790;53.590;10.002;2023-04-25T03:53:05;8.30;99.90
17346;DHT22;8790;53.590;10.002;2023-04-25T03:55:57;8.30;99.90
17346;DHT22;8790;53.590;10.002;2023-04-25T03:58:29;8.30;99.90
17346;DHT22;8790;53.590;10.002;2023-04-25T04:01:01;8.30;99.90
17346;DHT22;8790;53.590;10.002;2023-04-25T04:03:38;8.30;99.90
17346;DHT22;8790;53.590;10.002;2023-04-25T04:06:10;8.20;99.90
17346;DHT22;8790;53.590;10.002;2023-04-25T04:08:46;8.30;99.90
17346;DHT22;8790;53.590;10.002;2023-04-25T04:11:19;8.20;99.90
17346;DHT22;8790;53.590;10.002;2023-04-25T04:13:51;8.20;99.90
17346;DHT22;8790;53.590;10.002;2023-04-25T04:16:23;8.20;99.90
17346;DHT22;8790;53.590;10.002;2023-04-25T04:18:56;8.20;99.90
17346;DHT22;8790;53.590;10.002;2023-04-25T04:21:28;8.10;99.90
17346;DHT22;8790;53.590;10.002;2023-04-25T04:24:00;8.10;99.90
17346;DHT22;8790;53.590;10.002;2023-04-25T04:26:36;8.00;99.90
17346;DHT22;8790;53.590;10.002;2023-04-25T04:29:16;8.00;99.90
17346;DHT22;8790;53.590;10.002;2023-04-25T04:32:23;8.00;99.90
17346;DHT22;8790;53.590;10.002;2023-04-25T04:34:56;8.10;99.90
17346;DHT22;8790;53.590;10.002;2023-04-25T04:37:29;8.10;99.90
17346;DHT22;8790;53.590;10.002;2023-04-25T04:40:04;8.00;99.90
17346;DHT22;8790;53.590;10.002;2023-04-25T04:42:48;8.10;99.90
17346;DHT22;8790;53.590;10.002;2023-04-25T04:45:30;8.00;99.90
17346;DHT22;8790;53.590;10.002;2023-04-25T04:48:28;8.00;99.90
17346;DHT22;8790;53.590;10.002;2023-04-25T04:51:21;8.10;99.90
17346;DHT22;8790;53.590;10.002;2023-04-25T04:53:53;8.10;99.90
17346;DHT22;8790;53.590;10.002;2023-04-25T04:56:47;8.10;99.90
17346;DHT22;8790;53.590;10.002;2023-04-25T04:59:30;8.00;99.90
17346;DHT22;8790;53.590;10.002;2023-04-25T05:02:11;8.10;99.90
17346;DHT22;8790;53.590;10.002;2023-04-25T05:04:57;8.00;99.90
17346;DHT22;8790;53.590;10.002;2023-04-25T05:07:39;8.00;99.90
17346;DHT22;8790;53.590;10.002;2023-04-25T05:10:31;8.00;99.90
17346;DHT22;8790;53.590;10.002;2023-04-25T05:13:09;8.00;99.90
17346;DHT22;8790;53.590;10.002;2023-04-25T05:16:18;7.90;99.90
17346;DHT22;8790;53.590;10.002;2023-04-25T05:18:55;7.90;99.90
17346;DHT22;8790;53.590;10.002;2023-04-25T05:21:36;7.90;99.90
17346;DHT22;8790;53.590;10.002;2023-04-25T05:24:18;7.80;99.90
17346;DHT22;8790;53.590;10.002;2023-04-25T05:27:08;7.80;99.90
17346;DHT22;8790;53.590;10.002;2023-04-25T05:30:08;7.90;99.90
17346;DHT22;8790;53.590;10.002;2023-04-25T05:32:53;7.90;99.90
17346;DHT22;8790;53.590;10.002;2023-04-25T05:35:25;7.90;99.90
17346;DHT22;8790;53.590;10.002;2023-04-25T05:37:57;7.90;99.90
17346;DHT22;8790;53.590;10.002;2023-04-25T05:40:45;8.00;99.90
17346;DHT22;8790;53.590;10.002;2023-04-25T05:43:36;8.10;99.90
17346;DHT22;8790;53.590;10.002;2023-04-25T05:46:25;8.10;99.90
17346;DHT22;8790;53.590;10.002;2023-04-25T05:49:31;8.10;99.90
17346;DHT22;8790;53.590;10.002;2023-04-25T05:52:21;8.20;99.90
17346;DHT22;8790;53.590;10.002;2023-04-25T05:55:02;8.20;99.90
17346;DHT22;8790;53.590;10.002;2023-04-25T05:57:36;8.20;99.90
17346;DHT22;8790;53.590;10.002;2023-04-25T06:00:11;8.30;99.90
17346;DHT22;8790;53.590;10.002;2023-04-25T06:02:46;8.20;99.90
17346;DHT22;8790;53.590;10.002;2023-04-25T06:05:20;8.20;99.90
17346;DHT22;8790;53.590;10.002;2023-04-25T06:07:52;8.20;99.90
17346;DHT22;8790;53.590;10.002;2023-04-25T06:10:25;8.40;99.90
17346;DHT22;8790;53.590;10.002;2023-04-25T06:12:56;8.30;99.90
17346;DHT22;8790;53.590;10.002;2023-04-25T06:15:28;8.30;99.90
17346;DHT22;8790;53.590;10.002;2023-04-25T06:18:00;8.30;99.90
17346;DHT22;8790;53.590;10.002;2023-04-25T06:20:33;8.30;99.90
17346;DHT22;8790;53.590;10.002;2023-04-25T06:23:05;8.40;99.90
17346;DHT22;8790;53.590;10.002;2023-04-25T06:25:49;8.40;99.90
17346;DHT22;8790;53.590;10.002;2023-04-25T06:28:21;8.30;99.90
17346;DHT22;8790;53.590;10.002;2023-04-25T06:30:55;8.30;99.90
17346;DHT22;8790;53.590;10.002;2023-04-25T06:33:26;8.30;99.90
17346;DHT22;8790;53.590;10.002;2023-04-25T06:36:01;8.40;99.90
17346;DHT22;8790;53.590;10.002;2023-04-25T06:38:33;8.30;99.90
17346;DHT22;8790;53.590;10.002;2023-04-25T06:41:05;8.30;99.90
17346;DHT22;8790;53.590;10.002;2023-04-25T06:43:40;8.30;99.90
17346;DHT22;8790;53.590;10.002;2023-04-25T06:46:29;8.20;99.90
17346;DHT22;8790;53.590;10.002;2023-04-25T06:49:03;8.10;99.90
17346;DHT22;8790;53.590;10.002;2023-04-25T06:51:36;8.20;99.90
17346;DHT22;8790;53.590;10.002;2023-04-25T06:54:08;8.20;99.90
17346;DHT22;8790;53.590;10.002;2023-04-25T06:56:47;8.20;99.90
17346;DHT22;8790;53.590;10.002;2023-04-25T06:59:19;8.30;99.90
17346;DHT22;8790;53.590;10.002;2023-04-25T07:01:52;8.30;99.90
17346;DHT22;8790;53.590;10.002;2023-04-25T07:04:29;8.40;99.90
17346;DHT22;8790;53.590;10.002;2023-04-25T07:07:04;8.50;99.90
17346;DHT22;8790;53.590;10.002;2023-04-25T07:09:43;8.40;99.90
17346;DHT22;8790;53.590;10.002;2023-04-25T07:12:15;8.50;99.90
17346;DHT22;8790;53.590;10.002;2023-04-25T07:14:48;8.40;99.90
17346;DHT22;8790;53.590;10.002;2023-04-25T07:17:20;8.40;99.90
17346;DHT22;8790;53.590;10.002;2023-04-25T07:19:52;8.40;99.90
17346;DHT22;8790;53.590;10.002;2023-04-25T07:22:25;8.50;99.90
17346;DHT22;8790;53.590;10.002;2023-04-25T07:24:58;8.50;99.90
17346;DHT22;8790;53.590;10.002;2023-04-25T07:27:33;8.50;99.90
17346;DHT22;8790;53.590;10.002;2023-04-25T07:30:11;8.50;99.90
17346;DHT22;8790;53.590;10.002;2023-04-25T07:32:43;8.50;99.90
17346;DHT22;8790;53.590;10.002;2023-04-25T07:35:16;8.60;99.90
17346;DHT22;8790;53.590;10.002;2023-04-25T07:37:49;8.60;99.90
17346;DHT22;8790;53.590;10.002;2023-04-25T07:40:23;8.60;99.90
17346;DHT22;8790;53.590;10.002;2023-04-25T07:43:00;8.50;99.90
17346;DHT22;8790;53.590;10.002;2023-04-25T07:45:39;8.60;99.90
17346;DHT22;8790;53.590;10.002;2023-04-25T07:48:11;8.80;99.90
17346;DHT22;8790;53.590;10.002;2023-04-25T07:50:45;8.80;99.90
17346;DHT22;8790;53.590;10.002;2023-04-25T07:53:18;8.80;99.90
17346;DHT22;8790;53.590;10.002;2023-04-25T07:55:56;8.80;99.90
17346;DHT22;8790;53.590;10.002;2023-04-25T07:58:28;8.80;99.90
17346;DHT22;8790;53.590;10.002;2023-04-25T08:01:03;8.80;99.90
17346;DHT22;8790;53.590;10.002;2023-04-25T08:03:50;8.90;99.90
17346;DHT22;8790;53.590;10.002;2023-04-25T08:06:36;8.80;99.90
17346;DHT22;8790;53.590;10.002;2023-04-25T08:09:18;8.90;99.90
17346;DHT22;8790;53.590;10.002;2023-04-25T08:11:51;8.90;99.90
17346;DHT22;8790;53.590;10.002;2023-04-25T08:14:28;9.00;99.90
17346;DHT22;8790;53.590;10.002;2023-04-25T08:17:05;9.10;99.90
17346;DHT22;8790;53.590;10.002;2023-04-25T08:19:43;9.20;99.90
17346;DHT22;8790;53.590;10.002;2023-04-25T08:22:23;9.10;99.90
17346;DHT22;8790;53.590;10.002;2023-04-25T08:25:04;9.10;99.90
17346;DHT22;8790;53.590;10.002;2023-04-25T08:27:37;9.10;99.90
17346;DHT22;8790;53.590;10.002;2023-04-25T08:30:10;9.10;99.90
17346;DHT22;8790;53.590;10.002;2023-04-25T08:32:44;8.90;99.90
17346;DHT22;8790;53.590;10.002;2023-04-25T08:35:35;9.00;99.90
17346;DHT22;8790;53.590;10.002;2023-04-25T08:38:07;9.10;99.90
17346;DHT22;8790;53.590;10.002;2023-04-25T08:40:41;9.10;99.90
17346;DHT22;8790;53.590;10.002;2023-04-25T08:43:20;9.00;99.90
17346;DHT22;8790;53.590;10.002;2023-04-25T08:45:53;9.10;99.90
17346;DHT22;8790;53.590;10.002;2023-04-25T08:48:49;9.30;99.90
17346;DHT22;8790;53.590;10.002;2023-04-25T08:51:23;9.20;99.90
17346;DHT22;8790;53.590;10.002;2023-04-25T08:53:56;9.30;99.90
17346;DHT22;8790;53.590;10.002;2023-04-25T08:56:34;9.30;99.90
17346;DHT22;8790;53.590;10.002;2023-04-25T08:59:07;9.40;99.90
17346;DHT22;8790;53.590;10.002;2023-04-25T09:01:41;9.30;99.90
17346;DHT22;8790;53.590;10.002;2023-04-25T09:04:13;9.40;99.90
17346;DHT22;8790;53.590;10.002;2023-04-25T09:06:45;9.60;99.90
17346;DHT22;8790;53.590;10.002;2023-04-25T09:09:17;9.60;99.90
17346;DHT22;8790;53.590;10.002;2023-04-25T09:11:50;9.70;99.90
17346;DHT22;8790;53.590;10.002;2023-04-25T09:14:25;9.60;99.90
17346;DHT22;8790;53.590;10.002;2023-04-25T09:17:07;9.50;99.90
17346;DHT22;8790;53.590;10.002;2023-04-25T09:20:06;9.50;99.90
17346;DHT22;8790;53.590;10.002;2023-04-25T09:22:39;9.50;99.90
17346;DHT22;8790;53.590;10.002;2023-04-25T09:25:12;9.50;99.90
17346;DHT22;8790;53.590;10.002;2023-04-25T09:27:51;9.40;99.90
17346;DHT22;8790;53.590;10.002;2023-04-25T09:30:30;9.60;99.90
17346;DHT22;8790;53.590;10.002;2023-04-25T09:33:11;9.50;99.90
17346;DHT22;8790;53.590;10.002;2023-04-25T09:35:46;9.60;99.90
17346;DHT22;8790;53.590;10.002;2023-04-25T09:38:31;9.70;99.90
17346;DHT22;8790;53.590;10.002;2023-04-25T09:41:12;9.70;99.90
17346;DHT22;8790;53.590;10.002;2023-04-25T09:43:50;9.30;99.90
17346;DHT22;8790;53.590;10.002;2023-04-25T09:46:23;9.00;99.90
17346;DHT22;8790;53.590;10.002;2023-04-25T09:49:06;9.00;99.90
17346;DHT22;8790;53.590;10.002;2023-04-25T09:51:54;9.00;99.90
17346;DHT22;8790;53.590;10.002;2023-04-25T09:54:27;9.00;99.90
17346;DHT22;8790;53.590;10.002;2023-04-25T09:57:11;8.90;99.90
17346;DHT22;8790;53.590;10.002;2023-04-25T09:59:47;9.00;99.90
17346;DHT22;8790;53.590;10.002;2023-04-25T10:02:21;9.20;99.90
17346;DHT22;8790;53.590;10.002;2023-04-25T10:04:56;9.40;99.90
17346;DHT22;8790;53.590;10.002;2023-04-25T10:07:44;9.30;99.90
17346;DHT22;8790;53.590;10.002;2023-04-25T10:10:20;9.50;99.90
17346;DHT22;8790;53.590;10.002;2023-04-25T10:12:56;9.50;99.90
17346;DHT22;8790;53.590;10.002;2023-04-25T10:15:30;9.40;99.90
17346;DHT22;8790;53.590;10.002;2023-04-25T10:18:02;9.50;99.90
17346;DHT22;8790;53.590;10.002;2023-04-25T10:20:34;9.50;99.90
17346;DHT22;8790;53.590;10.002;2023-04-25T10:23:11;9.60;99.90
17346;DHT22;8790;53.590;10.002;2023-04-25T10:25:44;9.50;99.90
17346;DHT22;8790;53.590;10.002;2023-04-25T10:28:16;9.60;99.90
17346;DHT22;8790;53.590;10.002;2023-04-25T10:30:59;9.70;99.90
17346;DHT22;8790;53.590;10.002;2023-04-25T10:33:35;9.50;99.90
17346;DHT22;8790;53.590;10.002;2023-04-25T10:36:11;9.60;99.90
17346;DHT22;8790;53.590;10.002;2023-04-25T10:38:45;9.80;99.90
17346;DHT22;8790;53.590;10.002;2023-04-25T10:41:18;9.90;99.90
17346;DHT22;8790;53.590;10.002;2023-04-25T10:43:59;9.90;99.90
17346;DHT22;8790;53.590;10.002;2023-04-25T10:46:33;10.10;99.90
17346;DHT22;8790;53.590;10.002;2023-04-25T10:49:08;10.30;99.90
17346;DHT22;8790;53.590;10.002;2023-04-25T10:51:40;10.70;99.90
17346;DHT22;8790;53.590;10.002;2023-04-25T10:54:12;11.10;99.90
17346;DHT22;8790;53.590;10.002;2023-04-25T10:56:44;11.10;99.90
17346;DHT22;8790;53.590;10.002;2023-04-25T10:59:17;11.10;99.90
17346;DHT22;8790;53.590;10.002;2023-04-25T11:01:52;10.90;99.90
17346;DHT22;8790;53.590;10.002;2023-04-25T11:04:28;10.80;99.90
17346;DHT22;8790;53.590;10.002;2023-04-25T11:07:07;10.50;99.90
17346;DHT22;8790;53.590;10.002;2023-04-25T11:09:41;10.50;99.90
17346;DHT22;8790;53.590;10.002;2023-04-25T11:12:13;10.50;99.90
17346;DHT22;8790;53.590;10.002;2023-04-25T11:14:45;10.60;99.90
17346;DHT22;8790;53.590;10.002;2023-04-25T11:17:18;10.60;99.90
17346;DHT22;8790;53.590;10.002;2023-04-25T11:19:50;10.50;99.90
17346;DHT22;8790;53.590;10.002;2023-04-25T11:22:22;10.50;99.90
17346;DHT22;8790;53.590;10.002;2023-04-25T11:24:54;10.10;99.90
17346;DHT22;8790;53.590;10.002;2023-04-25T11:27:26;10.00;99.90
17346;DHT22;8790;53.590;10.002;2023-04-25T11:29:58;9.80;99.90
17346;DHT22;8790;53.590;10.002;2023-04-25T11:32:31;9.80;99.90
17346;DHT22;8790;53.590;10.002;2023-04-25T11:35:03;9.80;99.90
17346;DHT22;8790;53.590;10.002;2023-04-25T11:37:36;9.90;99.90
17346;DHT22;8790;53.590;10.002;2023-04-25T11:40:10;9.80;99.90
17346;DHT22;8790;53.590;10.002;2023-04-25T11:42:45;9.50;99.90
17346;DHT22;8790;53.590;10.002;2023-04-25T11:45:17;9.60;99.90
17346;DHT22;8790;53.590;10.002;2023-04-25T11:47:50;9.80;99.90
17346;DHT22;8790;53.590;10.002;2023-04-25T11:50:23;9.90;99.90
17346;DHT22;8790;53.590;10.002;2023-04-25T11:52:56;10.30;99.90
17346;DHT22;8790;53.590;10.002;2023-04-25T11:55:30;10.60;99.90
17346;DHT22;8790;53.590;10.002;2023-04-25T11:58:03;11.00;99.90
17346;DHT22;8790;53.590;10.002;2023-04-25T12:00:36;11.20;99.90
17346;DHT22;8790;53.590;10.002;2023-04-25T12:03:09;11.40;99.90
17346;DHT22;8790;53.590;10.002;2023-04-25T12:05:41;11.70;99.90
17346;DHT22;8790;53.590;10.002;2023-04-25T12:08:13;11.60;99.90
17346;DHT22;8790;53.590;10.002;2023-04-25T12:10:46;11.80;99.90
17346;DHT22;8790;53.590;10.002;2023-04-25T12:13:20;11.90;99.90
17346;DHT22;8790;53.590;10.002;2023-04-25T12:15:54;12.10;99.90
17346;DHT22;8790;53.590;10.002;2023-04-25T12:18:28;12.40;99.90
17346;DHT22;8790;53.590;10.002;2023-04-25T12:20:59;12.40;99.90
17346;DHT22;8790;53.590;10.002;2023-04-25T12:23:31;12.30;99.30
17346;DHT22;8790;53.590;10.002;2023-04-25T12:26:03;11.70;99.50
17346;DHT22;8790;53.590;10.002;2023-04-25T12:28:35;11.30;99.90
17346;DHT22;8790;53.590;10.002;2023-04-25T12:31:07;11.30;99.90
17346;DHT22;8790;53.590;10.002;2023-04-25T12:33:40;11.30;99.50
17346;DHT22;8790;53.590;10.002;2023-04-25T12:36:13;11.60;99.80
17346;DHT22;8790;53.590;10.002;2023-04-25T12:38:44;11.80;99.50
17346;DHT22;8790;53.590;10.002;2023-04-25T12:41:16;11.80;99.90
17346;DHT22;8790;53.590;10.002;2023-04-25T12:43:48;11.80;98.10
17346;DHT22;8790;53.590;10.002;2023-04-25T12:46:20;12.10;98.80
17346;DHT22;8790;53.590;10.002;2023-04-25T12:48:53;12.20;98.20
17346;DHT22;8790;53.590;10.002;2023-04-25T12:51:25;12.30;98.20
17346;DHT22;8790;53.590;10.002;2023-04-25T12:53:58;12.00;99.00
17346;DHT22;8790;53.590;10.002;2023-04-25T12:56:30;11.30;99.90
17346;DHT22;8790;53.590;10.002;2023-04-25T12:59:02;11.10;99.90
17346;DHT22;8790;53.590;10.002;2023-04-25T13:01:35;11.10;99.90
17346;DHT22;8790;53.590;10.002;2023-04-25T13:04:08;10.90;99.90
17346;DHT22;8790;53.590;10.002;2023-04-25T13:06:39;10.90;99.90
17346;DHT22;8790;53.590;10.002;2023-04-25T13:09:11;10.90;99.90
17346;DHT22;8790;53.590;10.002;2023-04-25T13:11:43;10.70;99.90
17346;DHT22;8790;53.590;10.002;2023-04-25T13:14:16;10.90;99.90
17346;DHT22;8790;53.590;10.002;2023-04-25T13:16:47;11.00;99.90
17346;DHT22;8790;53.590;10.002;2023-04-25T13:19:21;11.10;99.90
17346;DHT22;8790;53.590;10.002;2023-04-25T13:21:52;10.50;99.90
17346;DHT22;8790;53.590;10.002;2023-04-25T13:24:24;10.30;99.90
17346;DHT22;8790;53.590;10.002;2023-04-25T13:26:56;10.20;99.90
17346;DHT22;8790;53.590;10.002;2023-04-25T13:29:28;10.10;99.90
17346;DHT22;8790;53.590;10.002;2023-04-25T13:31:59;10.00;99.90
17346;DHT22;8790;53.590;10.002;2023-04-25T13:34:32;10.00;99.90
17346;DHT22;8790;53.590;10.002;2023-04-25T13:37:04;10.00;99.90
17346;DHT22;8790;53.590;10.002;2023-04-25T13:39:36;10.00;99.90
17346;DHT22;8790;53.590;10.002;2023-04-25T13:42:08;10.20;99.90
17346;DHT22;8790;53.590;10.002;2023-04-25T13:44:40;10.50;99.90
17346;DHT22;8790;53.590;10.002;2023-04-25T13:47:11;10.80;99.90
17346;DHT22;8790;53.590;10.002;2023-04-25T13:49:44;10.70;99.90
17346;DHT22;8790;53.590;10.002;2023-04-25T13:52:16;10.10;99.90
17346;DHT22;8790;53.590;10.002;2023-04-25T13:54:48;9.30;99.90
17346;DHT22;8790;53.590;10.002;2023-04-25T13:57:20;9.20;99.90
17346;DHT22;8790;53.590;10.002;2023-04-25T13:59:51;9.30;99.90
17346;DHT22;8790;53.590;10.002;2023-04-25T14:02:24;9.30;99.90
17346;DHT22;8790;53.590;10.002;2023-04-25T14:04:57;9.40;99.90
17346;DHT22;8790;53.590;10.002;2023-04-25T14:07:29;9.40;99.90
17346;DHT22;8790;53.590;10.002;2023-04-25T14:10:02;9.40;99.90
17346;DHT22;8790;53.590;10.002;2023-04-25T14:12:34;9.40;99.90
17346;DHT22;8790;53.590;10.002;2023-04-25T14:15:06;9.50;99.90
17346;DHT22;8790;53.590;10.002;2023-04-25T14:17:38;9.70;99.90
17346;DHT22;8790;53.590;10.002;2023-04-25T14:20:11;10.30;99.90
17346;DHT22;8790;53.590;10.002;2023-04-25T14:22:43;10.90;99.90
17346;DHT22;8790;53.590;10.002;2023-04-25T14:25:15;11.50;99.90
17346;DHT22;8790;53.590;10.002;2023-04-25T14:27:47;12.30;99.90
17346;DHT22;8790;53.590;10.002;2023-04-25T14:30:21;13.00;99.90
17346;DHT22;8790;53.590;10.002;2023-04-25T14:32:53;13.60;99.90
17346;DHT22;8790;53.590;10.002;2023-04-25T14:35:26;14.00;99.90
17346;DHT22;8790;53.590;10.002;2023-04-25T14:37:58;14.70;99.90
17346;DHT22;8790;53.590;10.002;2023-04-25T14:40:30;15.30;99.90
17346;DHT22;8790;53.590;10.002;2023-04-25T14:43:02;15.80;99.90
17346;DHT22;8790;53.590;10.002;2023-04-25T14:45:34;16.10;96.50
17346;DHT22;8790;53.590;10.002;2023-04-25T14:48:06;16.40;95.70
17346;DHT22;8790;53.590;10.002;2023-04-25T14:50:39;16.70;94.40
17346;DHT22;8790;53.590;10.002;2023-04-25T14:53:11;16.80;93.30
17346;DHT22;8790;53.590;10.002;2023-04-25T14:55:43;17.00;91.90
17346;DHT22;8790;53.590;10.002;2023-04-25T14:58:14;17.10;92.30
17346;DHT22;8790;53.590;10.002;2023-04-25T15:00:46;16.70;91.10
17346;DHT22;8790;53.590;10.002;2023-04-25T15:03:18;15.90;91.20
17346;DHT22;8790;53.590;10.002;2023-04-25T15:05:51;15.60;92.30
17346;DHT22;8790;53.590;10.002;2023-04-25T15:08:22;14.40;93.10
17346;DHT22;8790;53.590;10.002;2023-04-25T15:10:54;13.40;95.30
17346;DHT22;8790;53.590;10.002;2023-04-25T15:13:26;12.90;97.80
17346;DHT22;8790;53.590;10.002;2023-04-25T15:15:58;12.60;98.50
17346;DHT22;8790;53.590;10.002;2023-04-25T15:18:30;12.40;99.40
17346;DHT22;8790;53.590;10.002;2023-04-25T15:21:03;12.80;99.50
17346;DHT22;8790;53.590;10.002;2023-04-25T15:23:35;12.50;98.60
17346;DHT22;8790;53.590;10.002;2023-04-25T15:26:06;12.30;98.80
17346;DHT22;8790;53.590;10.002;2023-04-25T15:28:38;12.20;99.20
17346;DHT22;8790;53.590;10.002;2023-04-25T15:31:10;11.80;98.90
17346;DHT22;8790;53.590;10.002;2023-04-25T15:33:41;11.30;99.40
17346;DHT22;8790;53.590;10.002;2023-04-25T15:36:14;11.10;99.90
17346;DHT22;8790;53.590;10.002;2023-04-25T15:38:46;10.80;99.90
17346;DHT22;8790;53.590;10.002;2023-04-25T15:41:18;11.00;99.90
17346;DHT22;8790;53.590;10.002;2023-04-25T15:43:50;11.00;99.90
17346;DHT22;8790;53.590;10.002;2023-04-25T15:46:23;11.00;99.90
17346;DHT22;8790;53.590;10.002;2023-04-25T15:48:55;10.70;99.90
17346;DHT22;8790;53.590;10.002;2023-04-25T15:51:28;10.80;99.90
17346;DHT22;8790;53.590;10.002;2023-04-25T15:54:00;11.00;99.90
17346;DHT22;8790;53.590;10.002;2023-04-25T15:56:33;11.00;99.90
17346;DHT22;8790;53.590;10.002;2023-04-25T15:59:05;11.00;99.90
17346;DHT22;8790;53.590;10.002;2023-04-25T16:01:37;11.00;99.70
17346;DHT22;8790;53.590;10.002;2023-04-25T16:04:09;11.10;99.20
17346;DHT22;8790;53.590;10.002;2023-04-25T16:06:43;11.20;98.80
17346;DHT22;8790;53.590;10.002;2023-04-25T16:09:14;11.10;99.00
17346;DHT22;8790;53.590;10.002;2023-04-25T16:11:47;11.20;99.00
17346;DHT22;8790;53.590;10.002;2023-04-25T16:14:18;11.20;99.70
17346;DHT22;8790;53.590;10.002;2023-04-25T16:16:50;11.20;99.90
17346;DHT22;8790;53.590;10.002;2023-04-25T16:19:22;11.20;99.80
17346;DHT22;8790;53.590;10.002;2023-04-25T16:21:55;11.10;99.60
17346;DHT22;8790;53.590;10.002;2023-04-25T16:24:26;11.10;99.60
17346;DHT22;8790;53.590;10.002;2023-04-25T16:26:59;11.10;99.90
17346;DHT22;8790;53.590;10.002;2023-04-25T16:29:32;10.90;99.90
17346;DHT22;8790;53.590;10.002;2023-04-25T16:32:04;10.90;99.90